KALM/ALM METAR and TAF weather

Enter ICAO airport designator
Station Type Date Time Source
KALM METAR 2020/12/01 21:35 UTC NOAA

KALM 012135Z AUTO 00000KT 10SM CLR 14/M10 A2996 RMK AO2


Station Type Date Time Source
KALM Decoded METAR 2020/12/01 21:35 UTC NOAA

Alamogordo-White, NM, United States (KALM) 32-50N 105-59W
Dec 01, 2020 - 04:35 PM EST / 2020.12.01 2135 UTC
Wind: Calm:0
Visibility: 10 mile(s):0
Sky conditions: clear
Temperature: 57 F (14 C)
Dew Point: 14 F (-10 C)
Relative Humidity: 17%
Pressure (altimeter): 29.96 in. Hg (1014 hPa)
ob: KALM 012135Z AUTO 00000KT 10SM CLR 14/M10 A2996 RMK AO2
cycle: 21

Station Type Date Time Source
KALM TAF UTC NOAA

Error!

Example: see airport list